B Gas Margrethe — 9HA4386 — position and weather

sailwx.info

Track history (hours):
 
Tides and Currents Weather Stations Pressure Air Temp Water Temp Dewpoint Dewpoint Depression Visibility Wind Speed Wind Dir Waves Ship Positions

B Gas Margrethe

Last reported at 2018-Jan-19 19:31 UTC. Time now 2018-Jan-19 19:48 UTC.
Position N 51°55' E 004°12'.

Length 100 m; draft 5.2 m.

Type: Ship (hazmat cat A). MMSI: 249810000.

Date/timePositionNaut miles runAvg speedWind from/ knotsBaromVisibWave heightAir tempDewpointWater temp
2018-Jan-19 19:31N 51°55' E 004°12'0 0.0
2018-Jan-19 19:00N 51°55' E 004°12'0 0.0
2018-Jan-19 18:30N 51°55' E 004°12'0 0.0
2018-Jan-19 18:01N 51°55' E 004°12'0 0.0
2018-Jan-19 17:30N 51°55' E 004°12'0 0.0
2018-Jan-19 17:01N 51°55' E 004°12'0 0.0
2018-Jan-19 16:30N 51°55' E 004°12'0 0.0
2018-Jan-19 16:01N 51°55' E 004°12'0 0.0
2018-Jan-19 15:30N 51°55' E 004°12'0 0.0
2018-Jan-19 15:00N 51°55' E 004°12'0 0.0
2018-Jan-19 14:30N 51°55' E 004°12'0 0.0
2018-Jan-19 14:00N 51°55' E 004°12'0 0.0
2018-Jan-19 13:31N 51°55' E 004°12'0 0.0
2018-Jan-19 13:01N 51°55' E 004°12'0 0.0
2018-Jan-19 12:31N 51°55' E 004°12'0 0.0
2018-Jan-19 12:00N 51°55' E 004°12'0 0.0
2018-Jan-19 11:31N 51°55' E 004°12'0 0.0
2018-Jan-19 11:00N 51°55' E 004°12'0 0.0
2018-Jan-19 10:31N 51°55' E 004°12'0 0.0
2018-Jan-19 10:00N 51°55' E 004°12'0 0.0
2018-Jan-19 09:31N 51°55' E 004°12'0 0.0
2018-Jan-19 09:00N 51°55' E 004°12'0 0.0
2018-Jan-19 08:31N 51°55' E 004°12'0 0.0
2018-Jan-19 08:00N 51°55' E 004°12'0 0.0
2018-Jan-19 07:30N 51°55' E 004°12'0 0.0
2018-Jan-19 07:00N 51°55' E 004°12'0 0.0
2018-Jan-19 06:31N 51°55' E 004°12'0 0.0
2018-Jan-19 06:01N 51°55' E 004°12'0 0.0
2018-Jan-19 05:30N 51°55' E 004°12'0 0.0
2018-Jan-19 05:00N 51°55' E 004°12'0 0.0
2018-Jan-19 04:30N 51°55' E 004°12'0 0.0
2018-Jan-19 04:01N 51°55' E 004°12'0 0.0
2018-Jan-19 03:30N 51°55' E 004°12'0 0.0
2018-Jan-19 03:00N 51°55' E 004°12'0 0.0
2018-Jan-19 02:31N 51°55' E 004°12'0 0.0
2018-Jan-19 02:01N 51°55' E 004°12'0 0.0
2018-Jan-19 01:31N 51°55' E 004°12'0 0.0
2018-Jan-19 01:01N 51°55' E 004°12'0 0.0
2018-Jan-19 00:31N 51°55' E 004°12'0 0.0
2018-Jan-19 00:01N 51°55' E 004°12'0 0.0
2018-Jan-18 23:30N 51°55' E 004°12'0 0.0
2018-Jan-18 23:01N 51°55' E 004°12'0 0.9
2018-Jan-18 22:31N 51°56' E 004°12'4 7.8
2018-Jan-18 22:01N 51°58' E 004°07'5 9.5
2018-Jan-18 21:31N 51°60' E 003°60'5 9.6
2018-Jan-18 21:01N 52°01' E 003°52'2 3.2
2018-Jan-18 20:31N 51°60' E 003°50'2 3.1
2018-Jan-18 20:00N 51°59' E 003°48'3 6.3
2018-Jan-18 19:30N 51°56' E 003°48'1 1.3
2018-Jan-18 18:53N 51°55' E 003°48'0 0.0
2018-Jan-18 18:27N 51°55' E 003°48'0 0.0
2018-Jan-18 18:00N 51°55' E 003°48'0 0.1
2018-Jan-18 17:31N 51°56' E 003°48'0 0.0
2018-Jan-18 17:00N 51°56' E 003°48'0 0.0
2018-Jan-18 16:30N 51°56' E 003°48'0 0.0
2018-Jan-18 16:00N 51°56' E 003°48'0 0.1
2018-Jan-18 15:30N 51°55' E 003°48'2 4.4
2018-Jan-18 14:58N 51°54' E 003°45'4 7.6
2018-Jan-18 14:28N 51°53' E 003°39'0 0.4
2018-Jan-18 13:45N 51°53' E 003°39'0 0.8
2018-Jan-18 13:28N 51°53' E 003°40'1 0.6
2018-Jan-18 12:11N 51°53' E 003°41'0 1.4
2018-Jan-18 11:56N 51°53' E 003°41'1 2.0
2018-Jan-18 11:20N 51°54' E 003°43'1 1.8
2018-Jan-18 10:58N 51°55' E 003°44'4 7.5
2018-Jan-18 10:24N 51°52' E 003°38'2 1.0
2018-Jan-18 08:46N 51°52' E 003°41'1 3.5
2018-Jan-18 08:25N 51°53' E 003°42'2 2.2
2018-Jan-18 07:45N 51°55' E 003°43'1 1.6
2018-Jan-18 07:20N 51°54' E 003°43'0 0.5
2018-Jan-18 06:59N 51°54' E 003°43'0 0.4
2018-Jan-18 06:30N 51°54' E 003°43'0 0.7
2018-Jan-18 06:01N 51°54' E 003°43'0 0.3
2018-Jan-18 05:31N 51°55' E 003°43'0 0.4
2018-Jan-18 04:59N 51°55' E 003°44'0 0.2
2018-Jan-18 04:30N 51°55' E 003°44'0 0.5
2018-Jan-18 04:00N 51°55' E 003°44'2 4.0
2018-Jan-18 03:30N 51°57' E 003°42'5413.6
2018-Jan-17 23:31N 51°34' E 002°23'  
2018-Jan-12 14:42N 50°06' W 006°02'312.8
2018-Jan-12 14:28N 50°08' W 006°02'712.5
2018-Jan-12 13:53N 50°16' W 006°02'512.3
2018-Jan-12 13:30N 50°20' W 006°02'612.1
2018-Jan-12 13:00N 50°27' W 006°02'712.4
2018-Jan-12 12:26N 50°34' W 006°02'612.3
2018-Jan-12 11:59N 50°39' W 006°01'612.6
2018-Jan-12 11:29N 50°45' W 006°01'712.7
2018-Jan-12 10:54N 50°53' W 006°01'512.9
2018-Jan-12 10:29N 50°58' W 006°01'613.1
2018-Jan-12 10:00N 51°05' W 006°01'713.1
2018-Jan-12 09:26N 51°12' W 005°60'5413.0
2018-Jan-12 05:17N 52°05' W 005°50'512.1
2018-Jan-12 04:51N 52°11' W 005°49'412.1
2018-Jan-12 04:29N 52°15' W 005°48'612.2
2018-Jan-12 04:00N 52°21' W 005°46'3413.2
2018-Jan-12 01:26N 52°54' W 005°37'7814.8
2018-Jan-11 20:12N 54°11' W 005°21'314.5
2018-Jan-11 20:01N 54°14' W 005°21'714.4
2018-Jan-11 19:30N 54°21' W 005°19'714.1
2018-Jan-11 19:00N 54°28' W 005°20'714.8
2018-Jan-11 18:31N 54°35' W 005°23'815.3
2018-Jan-11 18:01N 54°43' W 005°27'815.6
2018-Jan-11 17:31N 54°50' W 005°33'815.6
2018-Jan-11 17:00N 54°57' W 005°40'913.6
2018-Jan-11 16:20N 54°60' W 005°55'2 0.3
2018-Jan-11 11:20N 54°60' W 005°58'1010.2
2018-Jan-11 10:23N 55°07' W 005°47'1415.9
2018-Jan-11 09:31N 54°55' W 005°39'115.5
2018-Jan-11 09:28N 54°54' W 005°38'715.1
2018-Jan-11 09:00N 54°47' W 005°36'612.5
2018-Jan-11 08:31N 54°42' W 005°44'610.8
2018-Jan-11 08:00N 54°39' W 005°51'2 0.1
2018-Jan-10 09:45N 54°37' W 005°53'0 0.0
2018-Jan-10 09:30N 54°37' W 005°53'0 0.1
2018-Jan-10 08:56N 54°37' W 005°53'3 6.1
2018-Jan-10 08:30N 54°39' W 005°51'4 9.0
2018-Jan-10 08:00N 54°42' W 005°45'5 9.5
2018-Jan-10 07:30N 54°44' W 005°38'5 9.5
2018-Jan-10 07:00N 54°49' W 005°37'4 7.0
2018-Jan-10 06:30N 54°53' W 005°36'4 7.6
2018-Jan-10 06:00N 54°56' W 005°40'1412.6
2018-Jan-10 04:56N 55°08' W 005°52'614.4
2018-Jan-10 04:30N 55°13' W 005°57'815.3
2018-Jan-10 04:00N 55°19' W 006°05'714.0
2018-Jan-10 03:30N 55°22' W 006°16'714.5
2018-Jan-10 03:00N 55°26' W 006°27'714.3
2018-Jan-10 02:30N 55°29' W 006°38'714.4
2018-Jan-10 02:00N 55°33' W 006°49'714.4
2018-Jan-10 01:30N 55°38' W 006°59'713.8
2018-Jan-10 01:00N 55°42' W 007°09'  
Track history (hours):
 
Tides and Currents Weather Stations Pressure Air Temp Water Temp Dewpoint Dewpoint Depression Visibility Wind Speed Wind Dir Waves Ship Positions

B Gas Margrethe

Last reported at 2018-Jan-19 19:31 UTC. Time now 2018-Jan-19 19:48 UTC.
Position N 51°55' E 004°12'.

Length 100 m; draft 5.2 m.

Type: Ship (hazmat cat A). MMSI: 249810000.

Date/timePositionNaut miles runAvg speedWind from/ knotsBaromVisibWave heightAir tempDewpointWater temp
2018-Jan-19 19:31N 51°55' E 004°12'0 0.0
2018-Jan-19 19:00N 51°55' E 004°12'0 0.0
2018-Jan-19 18:30N 51°55' E 004°12'0 0.0
2018-Jan-19 18:01N 51°55' E 004°12'0 0.0
2018-Jan-19 17:30N 51°55' E 004°12'0 0.0
2018-Jan-19 17:01N 51°55' E 004°12'0 0.0
2018-Jan-19 16:30N 51°55' E 004°12'0 0.0
2018-Jan-19 16:01N 51°55' E 004°12'0 0.0
2018-Jan-19 15:30N 51°55' E 004°12'0 0.0
2018-Jan-19 15:00N 51°55' E 004°12'0 0.0
2018-Jan-19 14:30N 51°55' E 004°12'0 0.0
2018-Jan-19 14:00N 51°55' E 004°12'0 0.0
2018-Jan-19 13:31N 51°55' E 004°12'0 0.0
2018-Jan-19 13:01N 51°55' E 004°12'0 0.0
2018-Jan-19 12:31N 51°55' E 004°12'0 0.0
2018-Jan-19 12:00N 51°55' E 004°12'0 0.0
2018-Jan-19 11:31N 51°55' E 004°12'0 0.0
2018-Jan-19 11:00N 51°55' E 004°12'0 0.0
2018-Jan-19 10:31N 51°55' E 004°12'0 0.0
2018-Jan-19 10:00N 51°55' E 004°12'0 0.0
2018-Jan-19 09:31N 51°55' E 004°12'0 0.0
2018-Jan-19 09:00N 51°55' E 004°12'0 0.0
2018-Jan-19 08:31N 51°55' E 004°12'0 0.0
2018-Jan-19 08:00N 51°55' E 004°12'0 0.0
2018-Jan-19 07:30N 51°55' E 004°12'0 0.0
2018-Jan-19 07:00N 51°55' E 004°12'0 0.0
2018-Jan-19 06:31N 51°55' E 004°12'0 0.0
2018-Jan-19 06:01N 51°55' E 004°12'0 0.0
2018-Jan-19 05:30N 51°55' E 004°12'0 0.0
2018-Jan-19 05:00N 51°55' E 004°12'0 0.0
2018-Jan-19 04:30N 51°55' E 004°12'0 0.0
2018-Jan-19 04:01N 51°55' E 004°12'0 0.0
2018-Jan-19 03:30N 51°55' E 004°12'0 0.0
2018-Jan-19 03:00N 51°55' E 004°12'0 0.0
2018-Jan-19 02:31N 51°55' E 004°12'0 0.0
2018-Jan-19 02:01N 51°55' E 004°12'0 0.0
2018-Jan-19 01:31N 51°55' E 004°12'0 0.0
2018-Jan-19 01:01N 51°55' E 004°12'0 0.0
2018-Jan-19 00:31N 51°55' E 004°12'0 0.0
2018-Jan-19 00:01N 51°55' E 004°12'0 0.0
2018-Jan-18 23:30N 51°55' E 004°12'0 0.0
2018-Jan-18 23:01N 51°55' E 004°12'0 0.9
2018-Jan-18 22:31N 51°56' E 004°12'4 7.8
2018-Jan-18 22:01N 51°58' E 004°07'5 9.5
2018-Jan-18 21:31N 51°60' E 003°60'5 9.6
2018-Jan-18 21:01N 52°01' E 003°52'2 3.2
2018-Jan-18 20:31N 51°60' E 003°50'2 3.1
2018-Jan-18 20:00N 51°59' E 003°48'3 6.3
2018-Jan-18 19:30N 51°56' E 003°48'1 1.3
2018-Jan-18 18:53N 51°55' E 003°48'0 0.0
2018-Jan-18 18:27N 51°55' E 003°48'0 0.0
2018-Jan-18 18:00N 51°55' E 003°48'0 0.1
2018-Jan-18 17:31N 51°56' E 003°48'0 0.0
2018-Jan-18 17:00N 51°56' E 003°48'0 0.0
2018-Jan-18 16:30N 51°56' E 003°48'0 0.0
2018-Jan-18 16:00N 51°56' E 003°48'0 0.1
2018-Jan-18 15:30N 51°55' E 003°48'2 4.4
2018-Jan-18 14:58N 51°54' E 003°45'4 7.6
2018-Jan-18 14:28N 51°53' E 003°39'0 0.4
2018-Jan-18 13:45N 51°53' E 003°39'0 0.8
2018-Jan-18 13:28N 51°53' E 003°40'1 0.6
2018-Jan-18 12:11N 51°53' E 003°41'0 1.4
2018-Jan-18 11:56N 51°53' E 003°41'1 2.0
2018-Jan-18 11:20N 51°54' E 003°43'1 1.8
2018-Jan-18 10:58N 51°55' E 003°44'4 7.5
2018-Jan-18 10:24N 51°52' E 003°38'2 1.0
2018-Jan-18 08:46N 51°52' E 003°41'1 3.5
2018-Jan-18 08:25N 51°53' E 003°42'2 2.2
2018-Jan-18 07:45N 51°55' E 003°43'1 1.6
2018-Jan-18 07:20N 51°54' E 003°43'0 0.5
2018-Jan-18 06:59N 51°54' E 003°43'0 0.4
2018-Jan-18 06:30N 51°54' E 003°43'0 0.7
2018-Jan-18 06:01N 51°54' E 003°43'0 0.3
2018-Jan-18 05:31N 51°55' E 003°43'0 0.4
2018-Jan-18 04:59N 51°55' E 003°44'0 0.2
2018-Jan-18 04:30N 51°55' E 003°44'0 0.5
2018-Jan-18 04:00N 51°55' E 003°44'2 4.0
2018-Jan-18 03:30N 51°57' E 003°42'5413.6
2018-Jan-17 23:31N 51°34' E 002°23'  
2018-Jan-12 14:42N 50°06' W 006°02'312.8
2018-Jan-12 14:28N 50°08' W 006°02'712.5
2018-Jan-12 13:53N 50°16' W 006°02'512.3
2018-Jan-12 13:30N 50°20' W 006°02'612.1
2018-Jan-12 13:00N 50°27' W 006°02'712.4
2018-Jan-12 12:26N 50°34' W 006°02'612.3
2018-Jan-12 11:59N 50°39' W 006°01'612.6
2018-Jan-12 11:29N 50°45' W 006°01'712.7
2018-Jan-12 10:54N 50°53' W 006°01'512.9
2018-Jan-12 10:29N 50°58' W 006°01'613.1
2018-Jan-12 10:00N 51°05' W 006°01'713.1
2018-Jan-12 09:26N 51°12' W 005°60'5413.0
2018-Jan-12 05:17N 52°05' W 005°50'512.1
2018-Jan-12 04:51N 52°11' W 005°49'412.1
2018-Jan-12 04:29N 52°15' W 005°48'612.2
2018-Jan-12 04:00N 52°21' W 005°46'3413.2
2018-Jan-12 01:26N 52°54' W 005°37'7814.8
2018-Jan-11 20:12N 54°11' W 005°21'314.5
2018-Jan-11 20:01N 54°14' W 005°21'714.4
2018-Jan-11 19:30N 54°21' W 005°19'714.1
2018-Jan-11 19:00N 54°28' W 005°20'714.8
2018-Jan-11 18:31N 54°35' W 005°23'815.3
2018-Jan-11 18:01N 54°43' W 005°27'815.6
2018-Jan-11 17:31N 54°50' W 005°33'815.6
2018-Jan-11 17:00N 54°57' W 005°40'913.6
2018-Jan-11 16:20N 54°60' W 005°55'2 0.3
2018-Jan-11 11:20N 54°60' W 005°58'1010.2
2018-Jan-11 10:23N 55°07' W 005°47'1415.9
2018-Jan-11 09:31N 54°55' W 005°39'115.5
2018-Jan-11 09:28N 54°54' W 005°38'715.1
2018-Jan-11 09:00N 54°47' W 005°36'612.5
2018-Jan-11 08:31N 54°42' W 005°44'610.8
2018-Jan-11 08:00N 54°39' W 005°51'2 0.1
2018-Jan-10 09:45N 54°37' W 005°53'0 0.0
2018-Jan-10 09:30N 54°37' W 005°53'0 0.1
2018-Jan-10 08:56N 54°37' W 005°53'3 6.1
2018-Jan-10 08:30N 54°39' W 005°51'4 9.0
2018-Jan-10 08:00N 54°42' W 005°45'5 9.5
2018-Jan-10 07:30N 54°44' W 005°38'5 9.5
2018-Jan-10 07:00N 54°49' W 005°37'4 7.0
2018-Jan-10 06:30N 54°53' W 005°36'4 7.6
2018-Jan-10 06:00N 54°56' W 005°40'1412.6
2018-Jan-10 04:56N 55°08' W 005°52'614.4
2018-Jan-10 04:30N 55°13' W 005°57'815.3
2018-Jan-10 04:00N 55°19' W 006°05'714.0
2018-Jan-10 03:30N 55°22' W 006°16'714.5
2018-Jan-10 03:00N 55°26' W 006°27'714.3
2018-Jan-10 02:30N 55°29' W 006°38'714.4
2018-Jan-10 02:00N 55°33' W 006°49'714.4
2018-Jan-10 01:30N 55°38' W 006°59'713.8
2018-Jan-10 01:00N 55°42' W 007°09'  

Dump ship's entire track history